sensor_id;sensor_type;location;lat;lon;timestamp;P1;P2;P0
69222;PMS7003;56514;51.816;-0.026;2022-07-23T00:02:50;0.00;0.00;0.00
69222;PMS7003;56514;51.816;-0.026;2022-07-23T00:05:55;0.00;0.00;0.00
69222;PMS7003;56514;51.816;-0.026;2022-07-23T00:08:40;0.00;0.00;0.00
69222;PMS7003;56514;51.816;-0.026;2022-07-23T00:11:26;0.00;0.00;0.00
69222;PMS7003;56514;51.816;-0.026;2022-07-23T00:14:11;0.00;0.00;0.00
69222;PMS7003;56514;51.816;-0.026;2022-07-23T00:16:56;0.75;0.75;0.75
69222;PMS7003;56514;51.816;-0.026;2022-07-23T00:19:41;0.00;0.00;0.00
69222;PMS7003;56514;51.816;-0.026;2022-07-23T00:22:26;0.00;0.00;0.00
69222;PMS7003;56514;51.816;-0.026;2022-07-23T00:25:12;0.75;0.75;0.00
69222;PMS7003;56514;51.816;-0.026;2022-07-23T00:28:00;0.00;0.00;0.00
69222;PMS7003;56514;51.816;-0.026;2022-07-23T00:30:45;1.00;1.00;0.00
69222;PMS7003;56514;51.816;-0.026;2022-07-23T00:33:30;1.00;1.00;0.00
69222;PMS7003;56514;51.816;-0.026;2022-07-23T00:36:15;0.00;0.00;0.00
69222;PMS7003;56514;51.816;-0.026;2022-07-23T00:39:03;0.25;0.25;0.00
69222;PMS7003;56514;51.816;-0.026;2022-07-23T00:41:48;0.00;0.00;0.00
69222;PMS7003;56514;51.816;-0.026;2022-07-23T00:44:37;0.00;0.00;0.00
69222;PMS7003;56514;51.816;-0.026;2022-07-23T00:47:22;0.00;0.00;0.00
69222;PMS7003;56514;51.816;-0.026;2022-07-23T00:50:08;0.00;0.00;0.00
69222;PMS7003;56514;51.816;-0.026;2022-07-23T00:52:54;0.00;0.00;0.00
69222;PMS7003;56514;51.816;-0.026;2022-07-23T00:55:39;1.00;1.00;0.25
69222;PMS7003;56514;51.816;-0.026;2022-07-23T00:58:24;0.25;0.25;0.25
69222;PMS7003;56514;51.816;-0.026;2022-07-23T01:01:09;1.00;1.00;0.50
69222;PMS7003;56514;51.816;-0.026;2022-07-23T01:03:56;0.00;0.00;0.00
69222;PMS7003;56514;51.816;-0.026;2022-07-23T01:06:41;1.00;1.00;0.75
69222;PMS7003;56514;51.816;-0.026;2022-07-23T01:09:29;0.00;0.00;0.00
69222;PMS7003;56514;51.816;-0.026;2022-07-23T01:12:16;0.00;0.00;0.00
69222;PMS7003;56514;51.816;-0.026;2022-07-23T01:15:00;1.00;1.00;1.00
69222;PMS7003;56514;51.816;-0.026;2022-07-23T01:17:45;0.00;0.00;0.00
69222;PMS7003;56514;51.816;-0.026;2022-07-23T01:20:32;0.00;0.00;0.00
69222;PMS7003;56514;51.816;-0.026;2022-07-23T01:23:17;0.00;0.00;0.00
69222;PMS7003;56514;51.816;-0.026;2022-07-23T01:26:02;0.75;0.75;0.00
69222;PMS7003;56514;51.816;-0.026;2022-07-23T01:28:47;0.00;0.00;0.00
69222;PMS7003;56514;51.816;-0.026;2022-07-23T01:31:32;1.00;1.00;0.00
69222;PMS7003;56514;51.816;-0.026;2022-07-23T01:34:17;1.00;1.00;1.00
69222;PMS7003;56514;51.816;-0.026;2022-07-23T01:37:02;1.00;1.00;1.00
69222;PMS7003;56514;51.816;-0.026;2022-07-23T01:39:46;0.00;0.00;0.00
69222;PMS7003;56514;51.816;-0.026;2022-07-23T01:42:31;1.00;1.00;1.00
69222;PMS7003;56514;51.816;-0.026;2022-07-23T01:45:17;0.50;0.50;0.50
69222;PMS7003;56514;51.816;-0.026;2022-07-23T01:48:01;0.00;0.00;0.00
69222;PMS7003;56514;51.816;-0.026;2022-07-23T01:50:46;0.00;0.00;0.00
69222;PMS7003;56514;51.816;-0.026;2022-07-23T01:53:32;0.00;0.00;0.00
69222;PMS7003;56514;51.816;-0.026;2022-07-23T01:56:16;0.25;0.25;0.25
69222;PMS7003;56514;51.816;-0.026;2022-07-23T01:59:03;0.00;0.00;0.00
69222;PMS7003;56514;51.816;-0.026;2022-07-23T02:01:48;0.00;0.00;0.00
69222;PMS7003;56514;51.816;-0.026;2022-07-23T02:04:38;0.00;0.00;0.00
69222;PMS7003;56514;51.816;-0.026;2022-07-23T02:07:22;0.00;0.00;0.00
69222;PMS7003;56514;51.816;-0.026;2022-07-23T02:10:07;0.00;0.00;0.00
69222;PMS7003;56514;51.816;-0.026;2022-07-23T02:12:52;1.00;1.00;1.00
69222;PMS7003;56514;51.816;-0.026;2022-07-23T02:15:37;0.00;0.00;0.00
69222;PMS7003;56514;51.816;-0.026;2022-07-23T02:18:22;1.00;1.00;0.75
69222;PMS7003;56514;51.816;-0.026;2022-07-23T02:21:07;1.00;1.00;1.00
69222;PMS7003;56514;51.816;-0.026;2022-07-23T02:23:52;0.00;0.00;0.00
69222;PMS7003;56514;51.816;-0.026;2022-07-23T02:26:36;0.00;0.00;0.00
69222;PMS7003;56514;51.816;-0.026;2022-07-23T02:29:22;0.25;0.25;0.00
69222;PMS7003;56514;51.816;-0.026;2022-07-23T02:32:06;0.00;0.00;0.00
69222;PMS7003;56514;51.816;-0.026;2022-07-23T02:34:51;0.25;0.25;0.25
69222;PMS7003;56514;51.816;-0.026;2022-07-23T02:37:38;0.50;0.50;0.25
69222;PMS7003;56514;51.816;-0.026;2022-07-23T02:40:22;0.00;0.00;0.00
69222;PMS7003;56514;51.816;-0.026;2022-07-23T02:43:07;1.00;1.00;1.00
69222;PMS7003;56514;51.816;-0.026;2022-07-23T02:45:52;1.00;1.00;1.00
69222;PMS7003;56514;51.816;-0.026;2022-07-23T02:48:38;0.25;0.25;0.00
69222;PMS7003;56514;51.816;-0.026;2022-07-23T02:51:23;1.00;1.00;0.50
69222;PMS7003;56514;51.816;-0.026;2022-07-23T02:54:07;1.00;1.00;0.75
69222;PMS7003;56514;51.816;-0.026;2022-07-23T02:56:52;0.00;0.00;0.00
69222;PMS7003;56514;51.816;-0.026;2022-07-23T02:59:38;0.00;0.00;0.00
69222;PMS7003;56514;51.816;-0.026;2022-07-23T03:02:22;0.00;0.00;0.00
69222;PMS7003;56514;51.816;-0.026;2022-07-23T03:05:08;0.50;0.50;0.00
69222;PMS7003;56514;51.816;-0.026;2022-07-23T03:07:53;0.00;0.00;0.00
69222;PMS7003;56514;51.816;-0.026;2022-07-23T03:10:38;0.00;0.00;0.00
69222;PMS7003;56514;51.816;-0.026;2022-07-23T03:13:22;0.00;0.00;0.00
69222;PMS7003;56514;51.816;-0.026;2022-07-23T03:16:07;1.25;1.25;1.00
69222;PMS7003;56514;51.816;-0.026;2022-07-23T03:18:52;0.00;0.00;0.00
69222;PMS7003;56514;51.816;-0.026;2022-07-23T03:21:37;0.00;0.00;0.00
69222;PMS7003;56514;51.816;-0.026;2022-07-23T03:24:25;0.25;0.25;0.25
69222;PMS7003;56514;51.816;-0.026;2022-07-23T03:27:30;0.75;0.75;0.75
69222;PMS7003;56514;51.816;-0.026;2022-07-23T03:30:15;1.00;1.00;1.00
69222;PMS7003;56514;51.816;-0.026;2022-07-23T03:32:59;0.00;0.00;0.00
69222;PMS7003;56514;51.816;-0.026;2022-07-23T03:35:45;0.25;0.25;0.25
69222;PMS7003;56514;51.816;-0.026;2022-07-23T03:38:31;1.00;1.00;1.00
69222;PMS7003;56514;51.816;-0.026;2022-07-23T03:41:16;0.25;0.25;0.25
69222;PMS7003;56514;51.816;-0.026;2022-07-23T03:44:01;0.75;0.75;0.75
69222;PMS7003;56514;51.816;-0.026;2022-07-23T03:46:45;0.25;0.25;0.25
69222;PMS7003;56514;51.816;-0.026;2022-07-23T03:49:30;1.00;1.00;1.00
69222;PMS7003;56514;51.816;-0.026;2022-07-23T03:52:15;0.00;0.00;0.00
69222;PMS7003;56514;51.816;-0.026;2022-07-23T03:55:01;0.00;0.00;0.00
69222;PMS7003;56514;51.816;-0.026;2022-07-23T03:57:46;0.00;0.00;0.00
69222;PMS7003;56514;51.816;-0.026;2022-07-23T04:00:31;0.75;0.75;0.75
69222;PMS7003;56514;51.816;-0.026;2022-07-23T04:03:16;0.75;0.75;0.75
69222;PMS7003;56514;51.816;-0.026;2022-07-23T04:06:00;0.00;0.00;0.00
69222;PMS7003;56514;51.816;-0.026;2022-07-23T04:08:45;1.00;1.00;1.00
69222;PMS7003;56514;51.816;-0.026;2022-07-23T04:11:30;0.00;0.00;0.00
69222;PMS7003;56514;51.816;-0.026;2022-07-23T04:14:15;0.00;0.00;0.00
69222;PMS7003;56514;51.816;-0.026;2022-07-23T04:17:00;1.00;1.00;0.75
69222;PMS7003;56514;51.816;-0.026;2022-07-23T04:19:45;1.00;1.00;0.25
69222;PMS7003;56514;51.816;-0.026;2022-07-23T04:22:29;0.50;0.50;0.50
69222;PMS7003;56514;51.816;-0.026;2022-07-23T04:25:18;1.00;1.00;1.00
69222;PMS7003;56514;51.816;-0.026;2022-07-23T04:28:02;1.00;1.00;1.00
69222;PMS7003;56514;51.816;-0.026;2022-07-23T04:30:48;1.25;1.25;1.00
69222;PMS7003;56514;51.816;-0.026;2022-07-23T04:33:33;1.00;1.00;1.00
69222;PMS7003;56514;51.816;-0.026;2022-07-23T04:36:18;0.25;0.25;0.00
69222;PMS7003;56514;51.816;-0.026;2022-07-23T04:39:03;0.00;0.00;0.00
69222;PMS7003;56514;51.816;-0.026;2022-07-23T04:41:47;1.00;1.00;0.25
69222;PMS7003;56514;51.816;-0.026;2022-07-23T04:44:32;0.00;0.00;0.00
69222;PMS7003;56514;51.816;-0.026;2022-07-23T04:47:17;0.50;0.50;0.25
69222;PMS7003;56514;51.816;-0.026;2022-07-23T04:50:01;0.50;0.50;0.25
69222;PMS7003;56514;51.816;-0.026;2022-07-23T04:52:47;0.75;0.75;0.75
69222;PMS7003;56514;51.816;-0.026;2022-07-23T04:55:32;0.00;0.00;0.00
69222;PMS7003;56514;51.816;-0.026;2022-07-23T04:58:17;1.00;1.00;1.00
69222;PMS7003;56514;51.816;-0.026;2022-07-23T05:01:02;0.00;0.00;0.00
69222;PMS7003;56514;51.816;-0.026;2022-07-23T05:03:47;0.00;0.00;0.00
69222;PMS7003;56514;51.816;-0.026;2022-07-23T05:06:32;0.00;0.00;0.00
69222;PMS7003;56514;51.816;-0.026;2022-07-23T05:09:17;0.75;0.75;0.75
69222;PMS7003;56514;51.816;-0.026;2022-07-23T05:12:02;1.00;1.00;1.00
69222;PMS7003;56514;51.816;-0.026;2022-07-23T05:14:47;0.00;0.00;0.00
69222;PMS7003;56514;51.816;-0.026;2022-07-23T05:17:33;1.00;1.00;1.00
69222;PMS7003;56514;51.816;-0.026;2022-07-23T05:20:18;1.00;1.00;1.00
69222;PMS7003;56514;51.816;-0.026;2022-07-23T05:23:03;1.00;1.00;1.00
69222;PMS7003;56514;51.816;-0.026;2022-07-23T05:25:49;1.00;1.00;1.00
69222;PMS7003;56514;51.816;-0.026;2022-07-23T05:28:34;0.50;0.50;0.50
69222;PMS7003;56514;51.816;-0.026;2022-07-23T05:31:19;0.00;0.00;0.00
69222;PMS7003;56514;51.816;-0.026;2022-07-23T05:34:04;1.25;1.25;1.00
69222;PMS7003;56514;51.816;-0.026;2022-07-23T05:36:49;0.75;0.75;0.50
69222;PMS7003;56514;51.816;-0.026;2022-07-23T05:39:35;0.00;0.00;0.00
69222;PMS7003;56514;51.816;-0.026;2022-07-23T05:42:19;1.75;1.75;1.75
69222;PMS7003;56514;51.816;-0.026;2022-07-23T05:45:05;2.00;2.00;2.00
69222;PMS7003;56514;51.816;-0.026;2022-07-23T05:47:51;1.25;1.25;1.25
69222;PMS7003;56514;51.816;-0.026;2022-07-23T05:50:37;1.25;1.25;1.00
69222;PMS7003;56514;51.816;-0.026;2022-07-23T05:53:22;1.00;1.00;1.00
69222;PMS7003;56514;51.816;-0.026;2022-07-23T05:56:07;1.00;1.00;1.00
69222;PMS7003;56514;51.816;-0.026;2022-07-23T05:58:52;2.50;2.50;2.00
69222;PMS7003;56514;51.816;-0.026;2022-07-23T06:01:37;2.00;2.00;2.00
69222;PMS7003;56514;51.816;-0.026;2022-07-23T06:04:21;1.00;1.00;1.00
69222;PMS7003;56514;51.816;-0.026;2022-07-23T06:07:06;2.50;2.50;1.50
69222;PMS7003;56514;51.816;-0.026;2022-07-23T06:09:51;1.00;1.00;1.00
69222;PMS7003;56514;51.816;-0.026;2022-07-23T06:12:39;2.00;2.00;1.00
69222;PMS7003;56514;51.816;-0.026;2022-07-23T06:15:24;1.75;1.75;1.50
69222;PMS7003;56514;51.816;-0.026;2022-07-23T06:18:09;1.00;1.00;0.75
69222;PMS7003;56514;51.816;-0.026;2022-07-23T06:20:54;2.00;2.00;1.25
69222;PMS7003;56514;51.816;-0.026;2022-07-23T06:23:39;2.75;2.75;2.50
69222;PMS7003;56514;51.816;-0.026;2022-07-23T06:26:24;4.00;4.00;3.00
69222;PMS7003;56514;51.816;-0.026;2022-07-23T06:29:09;6.00;6.00;5.00
69222;PMS7003;56514;51.816;-0.026;2022-07-23T06:31:54;4.00;4.00;3.00
69222;PMS7003;56514;51.816;-0.026;2022-07-23T06:34:38;2.75;2.75;2.50
69222;PMS7003;56514;51.816;-0.026;2022-07-23T06:37:23;6.25;6.25;4.50
69222;PMS7003;56514;51.816;-0.026;2022-07-23T06:40:08;7.75;7.75;6.25
69222;PMS7003;56514;51.816;-0.026;2022-07-23T06:42:54;7.50;7.50;5.00
69222;PMS7003;56514;51.816;-0.026;2022-07-23T06:45:39;8.00;8.00;6.75
69222;PMS7003;56514;51.816;-0.026;2022-07-23T06:48:24;6.00;6.00;4.00
69222;PMS7003;56514;51.816;-0.026;2022-07-23T06:51:08;10.50;10.50;7.50
69222;PMS7003;56514;51.816;-0.026;2022-07-23T06:53:54;7.00;7.00;5.50
69222;PMS7003;56514;51.816;-0.026;2022-07-23T06:56:38;7.25;7.25;6.25
69222;PMS7003;56514;51.816;-0.026;2022-07-23T06:59:23;8.00;8.00;7.00
69222;PMS7003;56514;51.816;-0.026;2022-07-23T07:02:08;7.75;7.75;7.00
69222;PMS7003;56514;51.816;-0.026;2022-07-23T07:04:53;8.75;8.75;7.00
69222;PMS7003;56514;51.816;-0.026;2022-07-23T07:07:37;8.00;8.00;7.00
69222;PMS7003;56514;51.816;-0.026;2022-07-23T07:10:22;6.50;6.00;5.50
69222;PMS7003;56514;51.816;-0.026;2022-07-23T07:13:07;7.00;7.00;5.00
69222;PMS7003;56514;51.816;-0.026;2022-07-23T07:15:52;8.00;8.00;7.00
69222;PMS7003;56514;51.816;-0.026;2022-07-23T07:18:38;8.00;8.00;7.00
69222;PMS7003;56514;51.816;-0.026;2022-07-23T07:21:22;7.75;7.75;7.00
69222;PMS7003;56514;51.816;-0.026;2022-07-23T07:24:07;8.25;8.25;6.25
69222;PMS7003;56514;51.816;-0.026;2022-07-23T07:26:53;8.75;8.75;7.25
69222;PMS7003;56514;51.816;-0.026;2022-07-23T07:29:38;8.25;8.25;6.50
69222;PMS7003;56514;51.816;-0.026;2022-07-23T07:32:25;9.25;9.25;7.00
69222;PMS7003;56514;51.816;-0.026;2022-07-23T07:35:10;6.75;6.75;5.00
69222;PMS7003;56514;51.816;-0.026;2022-07-23T07:37:55;8.25;8.25;7.00
69222;PMS7003;56514;51.816;-0.026;2022-07-23T07:40:40;7.25;7.25;6.50
69222;PMS7003;56514;51.816;-0.026;2022-07-23T07:43:24;9.00;9.00;6.50
69222;PMS7003;56514;51.816;-0.026;2022-07-23T07:46:18;10.75;10.75;9.00
69222;PMS7003;56514;51.816;-0.026;2022-07-23T07:49:04;9.25;9.25;7.50
69222;PMS7003;56514;51.816;-0.026;2022-07-23T07:51:50;11.25;11.25;9.00
69222;PMS7003;56514;51.816;-0.026;2022-07-23T07:54:39;10.00;10.00;7.50
69222;PMS7003;56514;51.816;-0.026;2022-07-23T07:57:23;10.75;10.75;9.75
69222;PMS7003;56514;51.816;-0.026;2022-07-23T08:00:09;11.75;11.75;8.75
69222;PMS7003;56514;51.816;-0.026;2022-07-23T08:02:55;11.00;11.00;9.00
69222;PMS7003;56514;51.816;-0.026;2022-07-23T08:05:40;10.50;10.50;9.00
69222;PMS7003;56514;51.816;-0.026;2022-07-23T08:08:25;10.50;10.50;9.00
69222;PMS7003;56514;51.816;-0.026;2022-07-23T08:11:09;8.00;8.00;6.50
69222;PMS7003;56514;51.816;-0.026;2022-07-23T08:13:54;10.25;10.25;9.25
69222;PMS7003;56514;51.816;-0.026;2022-07-23T08:16:39;8.50;8.50;6.75
69222;PMS7003;56514;51.816;-0.026;2022-07-23T08:19:24;9.25;9.25;7.00
69222;PMS7003;56514;51.816;-0.026;2022-07-23T08:22:09;9.00;9.00;6.00
69222;PMS7003;56514;51.816;-0.026;2022-07-23T08:24:54;8.25;8.25;6.50
69222;PMS7003;56514;51.816;-0.026;2022-07-23T08:27:38;9.00;9.00;8.25
69222;PMS7003;56514;51.816;-0.026;2022-07-23T08:30:24;8.25;8.25;7.50
69222;PMS7003;56514;51.816;-0.026;2022-07-23T08:33:10;9.00;9.00;6.75
69222;PMS7003;56514;51.816;-0.026;2022-07-23T08:35:59;8.50;8.50;8.00
69222;PMS7003;56514;51.816;-0.026;2022-07-23T08:38:47;7.75;7.75;6.75
69222;PMS7003;56514;51.816;-0.026;2022-07-23T08:41:32;8.00;8.00;5.50
69222;PMS7003;56514;51.816;-0.026;2022-07-23T08:44:18;13.25;13.25;11.00
69222;PMS7003;56514;51.816;-0.026;2022-07-23T08:47:03;9.50;9.50;5.75
69222;PMS7003;56514;51.816;-0.026;2022-07-23T08:49:50;8.75;8.75;7.50
69222;PMS7003;56514;51.816;-0.026;2022-07-23T08:52:39;11.50;11.50;8.75
69222;PMS7003;56514;51.816;-0.026;2022-07-23T08:55:24;11.00;11.00;8.00
69222;PMS7003;56514;51.816;-0.026;2022-07-23T08:58:10;9.00;9.00;8.00
69222;PMS7003;56514;51.816;-0.026;2022-07-23T09:00:55;7.00;7.00;5.50
69222;PMS7003;56514;51.816;-0.026;2022-07-23T09:03:41;9.50;9.50;8.00
69222;PMS7003;56514;51.816;-0.026;2022-07-23T09:06:29;10.00;10.00;8.50
69222;PMS7003;56514;51.816;-0.026;2022-07-23T09:09:35;9.00;9.00;6.00
69222;PMS7003;56514;51.816;-0.026;2022-07-23T09:12:44;10.50;10.50;8.00
69222;PMS7003;56514;51.816;-0.026;2022-07-23T09:15:50;10.00;10.00;9.00
69222;PMS7003;56514;51.816;-0.026;2022-07-23T09:21:23;9.75;9.75;7.00
69222;PMS7003;56514;51.816;-0.026;2022-07-23T09:24:16;9.25;9.25;8.25
69222;PMS7003;56514;51.816;-0.026;2022-07-23T09:27:01;8.00;8.00;5.75
69222;PMS7003;56514;51.816;-0.026;2022-07-23T09:29:54;6.50;6.50;6.00
69222;PMS7003;56514;51.816;-0.026;2022-07-23T09:32:41;6.00;6.00;5.00
69222;PMS7003;56514;51.816;-0.026;2022-07-23T09:35:42;7.00;7.00;4.75
69222;PMS7003;56514;51.816;-0.026;2022-07-23T09:38:36;6.00;6.00;4.75
69222;PMS7003;56514;51.816;-0.026;2022-07-23T09:41:37;9.00;9.00;6.00
69222;PMS7003;56514;51.816;-0.026;2022-07-23T09:44:29;5.50;5.50;5.25
69222;PMS7003;56514;51.816;-0.026;2022-07-23T09:47:14;7.25;7.25;6.00
69222;PMS7003;56514;51.816;-0.026;2022-07-23T09:53:25;5.00;5.00;4.00
69222;PMS7003;56514;51.816;-0.026;2022-07-23T09:56:11;5.75;5.75;4.75
69222;PMS7003;56514;51.816;-0.026;2022-07-23T09:58:59;5.25;5.25;5.00
69222;PMS7003;56514;51.816;-0.026;2022-07-23T10:01:58;5.00;5.00;5.00
69222;PMS7003;56514;51.816;-0.026;2022-07-23T10:04:44;5.50;5.50;4.50
69222;PMS7003;56514;51.816;-0.026;2022-07-23T10:07:37;5.00;5.00;4.75
69222;PMS7003;56514;51.816;-0.026;2022-07-23T10:10:23;4.00;4.00;4.00
69222;PMS7003;56514;51.816;-0.026;2022-07-23T10:13:10;5.00;5.00;4.25
69222;PMS7003;56514;51.816;-0.026;2022-07-23T10:16:14;3.75;3.75;3.00
69222;PMS7003;56514;51.816;-0.026;2022-07-23T10:19:20;5.00;5.00;4.25
69222;PMS7003;56514;51.816;-0.026;2022-07-23T10:22:33;4.00;4.00;3.25
69222;PMS7003;56514;51.816;-0.026;2022-07-23T10:25:44;4.00;4.00;4.00
69222;PMS7003;56514;51.816;-0.026;2022-07-23T10:29:11;3.00;3.00;2.25
69222;PMS7003;56514;51.816;-0.026;2022-07-23T10:35:48;3.25;3.25;2.75
69222;PMS7003;56514;51.816;-0.026;2022-07-23T10:39:22;2.25;2.25;2.00
69222;PMS7003;56514;51.816;-0.026;2022-07-23T10:42:35;3.75;3.75;3.25
69222;PMS7003;56514;51.816;-0.026;2022-07-23T10:45:44;2.50;2.50;2.00
69222;PMS7003;56514;51.816;-0.026;2022-07-23T10:52:32;2.50;2.50;2.00
69222;PMS7003;56514;51.816;-0.026;2022-07-23T10:55:43;3.25;3.25;2.00
69222;PMS7003;56514;51.816;-0.026;2022-07-23T10:58:57;2.00;2.00;2.00
69222;PMS7003;56514;51.816;-0.026;2022-07-23T11:02:30;2.00;2.00;2.00
69222;PMS7003;56514;51.816;-0.026;2022-07-23T11:05:44;3.00;3.00;2.25
69222;PMS7003;56514;51.816;-0.026;2022-07-23T11:08:33;3.00;3.00;2.50
69222;PMS7003;56514;51.816;-0.026;2022-07-23T11:11:18;2.75;2.75;2.00
69222;PMS7003;56514;51.816;-0.026;2022-07-23T11:14:03;3.00;3.00;2.00
69222;PMS7003;56514;51.816;-0.026;2022-07-23T11:16:48;3.00;3.00;3.00
69222;PMS7003;56514;51.816;-0.026;2022-07-23T11:20:12;2.00;2.00;2.00
69222;PMS7003;56514;51.816;-0.026;2022-07-23T11:22:54;2.00;2.00;2.00
69222;PMS7003;56514;51.816;-0.026;2022-07-23T11:25:42;2.50;2.50;2.00
69222;PMS7003;56514;51.816;-0.026;2022-07-23T11:28:28;3.00;3.00;2.75
69222;PMS7003;56514;51.816;-0.026;2022-07-23T11:31:17;3.25;3.25;3.00
69222;PMS7003;56514;51.816;-0.026;2022-07-23T11:37:48;2.75;2.75;2.00
69222;PMS7003;56514;51.816;-0.026;2022-07-23T11:40:26;2.00;2.00;2.00
69222;PMS7003;56514;51.816;-0.026;2022-07-23T11:43:11;2.00;2.00;2.00
69222;PMS7003;56514;51.816;-0.026;2022-07-23T11:45:58;2.00;2.00;2.00
69222;PMS7003;56514;51.816;-0.026;2022-07-23T11:48:44;3.00;3.00;2.00
69222;PMS7003;56514;51.816;-0.026;2022-07-23T11:51:29;1.75;1.75;1.75
69222;PMS7003;56514;51.816;-0.026;2022-07-23T11:54:16;1.75;1.75;1.75
69222;PMS7003;56514;51.816;-0.026;2022-07-23T11:57:01;2.00;2.00;2.00
69222;PMS7003;56514;51.816;-0.026;2022-07-23T11:59:47;2.50;2.50;2.50
69222;PMS7003;56514;51.816;-0.026;2022-07-23T12:02:37;2.25;2.25;1.50
69222;PMS7003;56514;51.816;-0.026;2022-07-23T12:05:25;3.00;3.00;2.75
69222;PMS7003;56514;51.816;-0.026;2022-07-23T12:08:32;2.00;2.00;1.50
69222;PMS7003;56514;51.816;-0.026;2022-07-23T12:11:37;2.00;2.00;2.00
69222;PMS7003;56514;51.816;-0.026;2022-07-23T12:14:51;2.00;2.00;2.00
69222;PMS7003;56514;51.816;-0.026;2022-07-23T12:18:01;2.00;2.00;1.50
69222;PMS7003;56514;51.816;-0.026;2022-07-23T12:21:11;1.75;1.75;1.75
69222;PMS7003;56514;51.816;-0.026;2022-07-23T12:24:20;3.00;3.00;2.00
69222;PMS7003;56514;51.816;-0.026;2022-07-23T12:27:30;2.00;2.00;2.00
69222;PMS7003;56514;51.816;-0.026;2022-07-23T12:33:56;3.00;3.00;2.75
69222;PMS7003;56514;51.816;-0.026;2022-07-23T12:37:05;2.50;2.50;2.25
69222;PMS7003;56514;51.816;-0.026;2022-07-23T12:43:32;2.00;2.00;2.00
69222;PMS7003;56514;51.816;-0.026;2022-07-23T12:46:48;2.00;2.00;1.50
69222;PMS7003;56514;51.816;-0.026;2022-07-23T12:49:59;2.00;2.00;2.00
69222;PMS7003;56514;51.816;-0.026;2022-07-23T12:53:10;2.00;2.00;2.00
69222;PMS7003;56514;51.816;-0.026;2022-07-23T12:59:41;2.50;2.50;2.50
69222;PMS7003;56514;51.816;-0.026;2022-07-23T13:02:51;2.75;2.75;2.50
69222;PMS7003;56514;51.816;-0.026;2022-07-23T13:05:36;3.00;3.00;2.75
69222;PMS7003;56514;51.816;-0.026;2022-07-23T13:08:21;1.25;1.25;1.00
69222;PMS7003;56514;51.816;-0.026;2022-07-23T13:11:07;2.00;2.00;2.00
69222;PMS7003;56514;51.816;-0.026;2022-07-23T13:13:53;1.00;1.00;1.00
69222;PMS7003;56514;51.816;-0.026;2022-07-23T13:16:38;2.00;2.00;2.00
69222;PMS7003;56514;51.816;-0.026;2022-07-23T13:19:24;2.00;2.00;2.00
69222;PMS7003;56514;51.816;-0.026;2022-07-23T13:22:09;2.00;2.00;1.50
69222;PMS7003;56514;51.816;-0.026;2022-07-23T13:24:54;1.00;1.00;1.00
69222;PMS7003;56514;51.816;-0.026;2022-07-23T13:27:38;1.75;1.75;1.75
69222;PMS7003;56514;51.816;-0.026;2022-07-23T13:30:23;2.50;2.50;2.00
69222;PMS7003;56514;51.816;-0.026;2022-07-23T13:33:08;1.00;1.00;0.75
69222;PMS7003;56514;51.816;-0.026;2022-07-23T13:35:54;2.50;2.50;1.75
69222;PMS7003;56514;51.816;-0.026;2022-07-23T13:38:39;1.50;1.50;1.50
69222;PMS7003;56514;51.816;-0.026;2022-07-23T13:41:23;1.75;1.75;1.75
69222;PMS7003;56514;51.816;-0.026;2022-07-23T13:44:08;1.00;1.00;1.00
69222;PMS7003;56514;51.816;-0.026;2022-07-23T13:46:53;1.00;1.00;0.50
69222;PMS7003;56514;51.816;-0.026;2022-07-23T13:49:37;0.50;0.50;0.25
69222;PMS7003;56514;51.816;-0.026;2022-07-23T13:52:22;1.00;1.00;1.00
69222;PMS7003;56514;51.816;-0.026;2022-07-23T13:55:08;0.50;0.50;0.00
69222;PMS7003;56514;51.816;-0.026;2022-07-23T13:57:53;1.00;1.00;0.25
69222;PMS7003;56514;51.816;-0.026;2022-07-23T14:00:40;0.00;0.00;0.00
69222;PMS7003;56514;51.816;-0.026;2022-07-23T14:03:26;1.75;1.75;1.75
69222;PMS7003;56514;51.816;-0.026;2022-07-23T14:06:11;0.00;0.00;0.00
69222;PMS7003;56514;51.816;-0.026;2022-07-23T14:09:17;0.00;0.00;0.00
69222;PMS7003;56514;51.816;-0.026;2022-07-23T14:12:21;1.00;1.00;1.00
69222;PMS7003;56514;51.816;-0.026;2022-07-23T14:15:26;1.00;1.00;1.00
69222;PMS7003;56514;51.816;-0.026;2022-07-23T14:18:32;0.00;0.00;0.00
69222;PMS7003;56514;51.816;-0.026;2022-07-23T14:21:42;1.00;1.00;1.00
69222;PMS7003;56514;51.816;-0.026;2022-07-23T14:24:51;0.75;0.75;0.75
69222;PMS7003;56514;51.816;-0.026;2022-07-23T14:27:57;1.75;1.75;1.75
69222;PMS7003;56514;51.816;-0.026;2022-07-23T14:31:07;2.25;2.25;2.25
69222;PMS7003;56514;51.816;-0.026;2022-07-23T14:34:15;2.00;2.00;2.00
69222;PMS7003;56514;51.816;-0.026;2022-07-23T14:37:25;1.00;1.00;1.00
69222;PMS7003;56514;51.816;-0.026;2022-07-23T14:40:10;2.00;2.00;2.00
69222;PMS7003;56514;51.816;-0.026;2022-07-23T14:42:54;3.75;3.75;3.25
69222;PMS7003;56514;51.816;-0.026;2022-07-23T14:45:39;2.00;2.00;2.00
69222;PMS7003;56514;51.816;-0.026;2022-07-23T14:48:24;1.50;1.50;1.25
69222;PMS7003;56514;51.816;-0.026;2022-07-23T14:51:09;1.75;1.75;1.50
69222;PMS7003;56514;51.816;-0.026;2022-07-23T14:53:54;2.00;2.00;2.00
69222;PMS7003;56514;51.816;-0.026;2022-07-23T14:56:40;2.00;2.00;2.00
69222;PMS7003;56514;51.816;-0.026;2022-07-23T14:59:28;1.00;1.00;1.00
69222;PMS7003;56514;51.816;-0.026;2022-07-23T15:02:14;1.50;1.50;1.50
69222;PMS7003;56514;51.816;-0.026;2022-07-23T15:04:59;2.50;2.50;2.00
69222;PMS7003;56514;51.816;-0.026;2022-07-23T15:07:47;2.00;2.00;2.00
69222;PMS7003;56514;51.816;-0.026;2022-07-23T15:10:32;3.00;3.00;3.00
69222;PMS7003;56514;51.816;-0.026;2022-07-23T15:13:17;3.50;3.50;3.00
69222;PMS7003;56514;51.816;-0.026;2022-07-23T15:16:02;3.25;3.25;2.75
69222;PMS7003;56514;51.816;-0.026;2022-07-23T15:18:48;1.75;1.75;1.75
69222;PMS7003;56514;51.816;-0.026;2022-07-23T15:21:32;2.00;2.00;2.00
69222;PMS7003;56514;51.816;-0.026;2022-07-23T15:24:17;2.00;2.00;2.00
69222;PMS7003;56514;51.816;-0.026;2022-07-23T15:27:02;2.75;2.75;2.50
69222;PMS7003;56514;51.816;-0.026;2022-07-23T15:29:47;4.00;4.00;2.75
69222;PMS7003;56514;51.816;-0.026;2022-07-23T15:32:32;2.00;2.00;2.00
69222;PMS7003;56514;51.816;-0.026;2022-07-23T15:35:17;2.00;2.00;2.00
69222;PMS7003;56514;51.816;-0.026;2022-07-23T15:38:02;2.50;2.50;2.00
69222;PMS7003;56514;51.816;-0.026;2022-07-23T15:41:07;2.50;2.50;2.50
69222;PMS7003;56514;51.816;-0.026;2022-07-23T15:44:12;2.75;2.75;2.75
69222;PMS7003;56514;51.816;-0.026;2022-07-23T15:47:22;1.75;1.75;1.75
69222;PMS7003;56514;51.816;-0.026;2022-07-23T15:50:31;2.75;2.75;2.00
69222;PMS7003;56514;51.816;-0.026;2022-07-23T15:53:36;2.00;2.00;2.00
69222;PMS7003;56514;51.816;-0.026;2022-07-23T15:56:41;1.75;1.75;1.00
69222;PMS7003;56514;51.816;-0.026;2022-07-23T15:59:47;1.00;1.00;1.00
69222;PMS7003;56514;51.816;-0.026;2022-07-23T16:02:57;2.00;2.00;2.00
69222;PMS7003;56514;51.816;-0.026;2022-07-23T16:06:06;1.25;1.25;1.00
69222;PMS7003;56514;51.816;-0.026;2022-07-23T16:09:15;2.00;2.00;1.50
69222;PMS7003;56514;51.816;-0.026;2022-07-23T16:12:24;1.00;1.00;1.00
69222;PMS7003;56514;51.816;-0.026;2022-07-23T16:15:34;1.75;1.75;1.75
69222;PMS7003;56514;51.816;-0.026;2022-07-23T16:18:43;2.00;2.00;2.00
69222;PMS7003;56514;51.816;-0.026;2022-07-23T16:21:52;1.25;1.25;1.25
69222;PMS7003;56514;51.816;-0.026;2022-07-23T16:24:37;1.75;1.75;1.75
69222;PMS7003;56514;51.816;-0.026;2022-07-23T16:27:22;2.50;2.50;2.00
69222;PMS7003;56514;51.816;-0.026;2022-07-23T16:30:08;3.00;3.00;2.00
69222;PMS7003;56514;51.816;-0.026;2022-07-23T16:32:54;2.25;2.25;2.00
69222;PMS7003;56514;51.816;-0.026;2022-07-23T16:35:39;3.00;3.00;2.50
69222;PMS7003;56514;51.816;-0.026;2022-07-23T16:38:23;2.75;2.75;2.25
69222;PMS7003;56514;51.816;-0.026;2022-07-23T16:41:09;3.25;3.25;3.00
69222;PMS7003;56514;51.816;-0.026;2022-07-23T16:43:54;3.50;3.50;3.00
69222;PMS7003;56514;51.816;-0.026;2022-07-23T16:46:39;3.00;3.00;3.00